Cornelia, Georgia
Current Conditions -  °F | °C
As of 10:15 PM on Saturday 22 Nov 2014 (Local Time) from KTOC Reporting Station
Overcast Overcast  
Wind Chill: 49°   Ceiling: 3500
Heat Index: 49°   Visibility: 10mi
Dew Point: 30°   Wind: 3mph
Humidity: 48%   Direction: 50°NE
Pressure: 30.31"   Gusts: NA
Location:  34.51°N, 83.53°W
Report Text: KTOC 230315Z AUTO 05003KT 10SM OVC035 09/M01 A3031 RMK AO2 T00941012
Loading
Personal Weather Stations






























Interactive Weather Map New forecast layout! Learn more

10-Day Weather Forecast

Advertisements
Track Severe Weather on mobile